Time;durP1;ratioP1;P1;durP2;ratioP2;P2;SDS_P1;SDS_P2;PMS_P1;PMS_P2;Temp;Humidity;BMP_temperature;BMP_pressure;BME280_temperature;BME280_humidity;BME280_pressure;Samples;Min_cycle;Max_cycle;Signal;HPM_P1;HPM_P2
2021/03/13 00:01:21;;;;;;;10.93;2.93;;;8.80;76.20;;;;;;5072179;28;20189;-84
2021/03/13 00:03:47;;;;;;;8.60;3.17;;;8.60;77.00;;;;;;5072639;28;20414;-84
2021/03/13 00:06:13;;;;;;;16.20;3.90;;;8.60;77.90;;;;;;5072131;28;20263;-84
2021/03/13 00:08:39;;;;;;;10.63;3.70;;;8.50;78.60;;;;;;5073961;28;20222;-84
2021/03/13 00:11:07;;;;;;;3.20;2.40;;;8.40;79.40;;;;;;5072359;28;20216;-84
2021/03/13 00:13:33;;;;;;;8.13;3.10;;;8.40;80.00;;;;;;5072476;28;20458;-84
2021/03/13 00:15:59;;;;;;;6.25;4.22;;;8.30;80.50;;;;;;5072699;28;20549;-84
2021/03/13 00:18:25;;;;;;;11.33;3.13;;;8.40;81.00;;;;;;5075964;28;20176;-83
2021/03/13 00:20:51;;;;;;;21.60;3.75;;;8.30;81.30;;;;;;5073397;28;20439;-84
2021/03/13 00:23:17;;;;;;;7.22;3.03;;;8.30;81.70;;;;;;5073488;28;20188;-85
2021/03/13 00:25:43;;;;;;;10.00;3.13;;;8.30;82.50;;;;;;5073156;28;20662;-82
2021/03/13 00:28:09;;;;;;;6.53;4.07;;;8.20;82.10;;;;;;5073741;28;20214;-84
2021/03/13 00:30:43;;;;;;;12.82;3.35;;;8.20;82.30;;;;;;5073983;28;20243;-85
2021/03/13 00:33:34;;;;;;;15.02;3.53;;;8.10;82.70;;;;;;5073361;28;20273;-84
2021/03/13 00:36:00;;;;;;;7.47;3.40;;;8.20;82.90;;;;;;5073135;28;20176;-84
2021/03/13 00:38:26;;;;;;;10.10;3.63;;;8.30;83.00;;;;;;5074608;28;20660;-85
2021/03/13 00:40:52;;;;;;;10.50;3.20;;;8.10;82.60;;;;;;5072942;28;20639;-84
2021/03/13 00:43:18;;;;;;;8.55;2.90;;;8.10;83.10;;;;;;5074322;28;20258;-84
2021/03/13 00:45:45;;;;;;;8.38;3.42;;;8.00;83.20;;;;;;5073693;28;20705;-84
2021/03/13 00:48:11;;;;;;;9.73;3.03;;;7.90;83.60;;;;;;5080810;28;20181;-84
2021/03/13 00:50:40;;;;;;;6.85;2.85;;;8.10;83.80;;;;;;5095444;28;20189;-84
2021/03/13 00:53:06;;;;;;;6.88;3.45;;;8.20;83.40;;;;;;5092544;28;20187;-84
2021/03/13 00:55:33;;;;;;;16.30;3.20;;;8.40;83.10;;;;;;5092370;28;20196;-84
2021/03/13 00:57:58;;;;;;;4.70;1.88;;;8.40;82.80;;;;;;5092198;28;20440;-84
2021/03/13 01:00:26;;;;;;;4.60;2.07;;;8.30;82.50;;;;;;5092251;28;20165;-85
2021/03/13 01:02:52;;;;;;;7.10;2.65;;;8.30;81.80;;;;;;5086540;28;20192;-84
2021/03/13 01:05:18;;;;;;;11.70;3.47;;;8.10;81.40;;;;;;5075686;28;20180;-83
2021/03/13 01:07:45;;;;;;;7.95;3.05;;;8.00;81.70;;;;;;5073248;28;20246;-83
2021/03/13 01:10:15;;;;;;;9.90;3.53;;;8.20;82.00;;;;;;5072972;28;20181;-84
2021/03/13 01:12:42;;;;;;;5.40;2.53;;;8.00;81.90;;;;;;5072539;28;20733;-84
2021/03/13 01:15:11;;;;;;;13.20;2.53;;;8.10;82.10;;;;;;5073958;28;20208;-84
2021/03/13 01:17:37;;;;;;;10.57;3.38;;;8.00;82.00;;;;;;5075881;28;20273;-84
2021/03/13 01:20:07;;;;;;;5.15;2.80;;;8.00;82.20;;;;;;5075990;28;20173;-84
2021/03/13 01:22:33;;;;;;;5.82;2.63;;;8.10;82.60;;;;;;5075614;28;20250;-84
2021/03/13 01:24:58;;;;;;;6.40;2.50;;;8.00;82.40;;;;;;5075788;28;20544;-84
2021/03/13 01:27:24;;;;;;;15.43;2.80;;;8.00;82.50;;;;;;5075627;28;20187;-84
2021/03/13 01:29:50;;;;;;;9.47;3.27;;;7.90;82.50;;;;;;5075902;28;20708;-84
2021/03/13 01:32:15;;;;;;;11.63;2.93;;;7.90;82.60;;;;;;5075356;28;20199;-84
2021/03/13 01:34:41;;;;;;;4.53;2.57;;;8.00;82.50;;;;;;5075802;28;20253;-84
2021/03/13 01:37:07;;;;;;;6.70;3.70;;;8.10;82.40;;;;;;5076132;28;20261;-84
2021/03/13 01:39:33;;;;;;;3.10;2.27;;;8.10;82.30;;;;;;5076537;28;20415;-84
2021/03/13 01:41:58;;;;;;;3.37;2.20;;;8.20;82.10;;;;;;5076062;28;20223;-85
2021/03/13 01:44:24;;;;;;;3.50;2.23;;;8.10;81.60;;;;;;5068471;28;20181;-84
2021/03/13 01:46:50;;;;;;;2.73;2.50;;;8.00;81.60;;;;;;5058654;28;20207;-85
2021/03/13 01:49:26;;;;;;;7.03;3.03;;;8.00;81.80;;;;;;5059631;28;20177;-84
2021/03/13 01:51:52;;;;;;;6.97;3.00;;;8.00;82.10;;;;;;5058383;28;20209;-84
2021/03/13 01:54:17;;;;;;;4.80;2.00;;;8.00;82.40;;;;;;5058216;28;20197;-84
2021/03/13 01:56:44;;;;;;;5.80;1.87;;;8.10;82.40;;;;;;5058272;28;20180;-84
2021/03/13 01:59:10;;;;;;;3.90;2.13;;;8.00;82.40;;;;;;5067662;28;20193;-84
2021/03/13 02:01:38;;;;;;;5.45;1.75;;;8.00;82.70;;;;;;5077062;28;20208;-84
2021/03/13 02:04:04;;;;;;;12.50;2.25;;;8.20;82.90;;;;;;5077407;28;20181;-84
2021/03/13 02:06:30;;;;;;;6.25;2.63;;;8.20;82.60;;;;;;5077318;28;20188;-84
2021/03/13 02:09:13;;;;;;;7.20;2.50;;;8.10;82.50;;;;;;5077951;28;20589;-84
2021/03/13 02:11:45;;;;;;;7.32;1.80;;;7.90;83.00;;;;;;5075282;28;20968;-84
2021/03/13 02:14:16;;;;;;;10.77;2.10;;;7.70;83.90;;;;;;5075674;28;20350;-84
2021/03/13 02:17:00;;;;;;;4.63;1.80;;;7.60;84.50;;;;;;5076242;28;20176;-84
2021/03/13 02:19:44;;;;;;;6.10;1.50;;;7.70;85.00;;;;;;5075092;28;20234;-84
2021/03/13 02:22:15;;;;;;;4.35;2.10;;;7.70;84.90;;;;;;5075697;28;20690;-84
2021/03/13 02:24:58;;;;;;;6.80;2.15;;;7.80;85.00;;;;;;5075494;28;20252;-84
2021/03/13 02:27:31;;;;;;;6.75;2.28;;;8.00;84.80;;;;;;5075812;28;20185;-84
2021/03/13 02:30:05;;;;;;;7.22;2.38;;;7.90;84.10;;;;;;5075124;28;20206;-84
2021/03/13 02:32:40;;;;;;;5.78;2.00;;;7.90;83.90;;;;;;5075172;28;20203;-84
2021/03/13 02:35:25;;;;;;;3.58;2.35;;;7.90;83.60;;;;;;5074064;28;20573;-84
2021/03/13 02:38:01;;;;;;;11.32;2.40;;;8.10;83.80;;;;;;5074296;28;20557;-84
2021/03/13 02:40:29;;;;;;;5.97;1.98;;;8.10;83.20;;;;;;5073724;28;20206;-85
2021/03/13 02:43:01;;;;;;;4.13;2.95;;;8.10;83.00;;;;;;5074028;28;20710;-84
2021/03/13 02:45:30;;;;;;;4.63;1.92;;;8.20;83.10;;;;;;5063709;28;20644;-84
2021/03/13 02:47:56;;;;;;;5.97;2.03;;;8.40;83.00;;;;;;5053974;28;20177;-84
2021/03/13 02:50:25;;;;;;;9.50;3.13;;;8.10;83.00;;;;;;5053931;28;20169;-84
2021/03/13 02:52:52;;;;;;;4.05;2.15;;;8.20;83.40;;;;;;5053746;28;20228;-84
2021/03/13 02:55:21;;;;;;;9.38;3.72;;;8.20;83.30;;;;;;5053605;28;20677;-84
2021/03/13 02:57:49;;;;;;;5.72;2.85;;;8.40;83.10;;;;;;5053582;28;20529;-83
2021/03/13 03:00:17;;;;;;;8.35;3.25;;;8.40;83.10;;;;;;5070124;28;20168;-84
2021/03/13 03:02:45;;;;;;;7.22;2.65;;;8.50;83.40;;;;;;5073159;28;20204;-84
2021/03/13 03:05:12;;;;;;;13.30;3.00;;;8.30;83.10;;;;;;5075006;28;20175;-84
2021/03/13 03:07:38;;;;;;;6.75;2.60;;;8.40;83.40;;;;;;5073530;28;20229;-84
2021/03/13 03:10:07;;;;;;;16.30;2.80;;;8.40;83.50;;;;;;5074929;28;20229;-84
2021/03/13 03:12:34;;;;;;;8.32;2.97;;;8.50;83.60;;;;;;5072689;28;20205;-84
2021/03/13 03:15:01;;;;;;;7.40;2.70;;;8.50;83.40;;;;;;5073444;28;20294;-84
2021/03/13 03:17:28;;;;;;;9.52;2.33;;;8.60;83.40;;;;;;5073517;28;20296;-84
2021/03/13 03:19:56;;;;;;;3.45;1.88;;;8.60;83.60;;;;;;5073616;28;20176;-84
2021/03/13 03:22:23;;;;;;;8.77;2.78;;;8.50;83.40;;;;;;5074187;28;20195;-84
2021/03/13 03:24:49;;;;;;;4.45;2.97;;;8.40;83.50;;;;;;5073405;28;20180;-84
2021/03/13 03:27:15;;;;;;;10.82;2.88;;;8.40;84.00;;;;;;5073145;28;20181;-84
2021/03/13 03:29:41;;;;;;;14.47;2.50;;;8.50;84.50;;;;;;5073421;28;20275;-83
2021/03/13 03:32:07;;;;;;;6.37;2.40;;;8.50;84.70;;;;;;5072899;28;20430;-84
2021/03/13 03:34:33;;;;;;;15.55;2.50;;;8.40;84.50;;;;;;5072958;28;20211;-84
2021/03/13 03:36:58;;;;;;;6.20;2.17;;;8.30;84.60;;;;;;5073038;28;20177;-84
2021/03/13 03:39:24;;;;;;;6.90;1.73;;;8.50;84.70;;;;;;5073194;28;20200;-84
2021/03/13 03:41:56;;;;;;;5.30;3.08;;;8.40;84.40;;;;;;5073197;28;20314;-85
2021/03/13 03:44:25;;;;;;;5.32;2.45;;;8.50;84.40;;;;;;5073288;28;20177;-84
2021/03/13 03:46:56;;;;;;;16.10;2.70;;;8.50;84.10;;;;;;5073104;28;20176;-84
2021/03/13 03:49:23;;;;;;;10.40;2.35;;;8.60;84.10;;;;;;5073272;28;20604;-84
2021/03/13 03:51:49;;;;;;;8.32;2.10;;;8.60;84.00;;;;;;5072497;28;20358;-85
2021/03/13 03:54:17;;;;;;;4.10;2.17;;;8.50;83.90;;;;;;5072785;28;20204;-85
2021/03/13 03:56:44;;;;;;;4.90;2.17;;;8.40;84.00;;;;;;5073261;28;20192;-85
2021/03/13 03:59:14;;;;;;;3.97;2.17;;;8.40;84.40;;;;;;5072726;28;20185;-84
2021/03/13 04:01:44;;;;;;;6.57;2.30;;;8.50;84.70;;;;;;5073544;28;20195;-84
2021/03/13 04:04:13;;;;;;;6.95;2.42;;;8.50;84.50;;;;;;5072833;28;20176;-84
2021/03/13 04:06:39;;;;;;;8.00;2.17;;;8.50;84.50;;;;;;5074017;28;20161;-84
2021/03/13 04:09:06;;;;;;;7.97;1.80;;;8.60;84.30;;;;;;5072803;28;20264;-84
2021/03/13 04:11:33;;;;;;;8.32;1.90;;;8.50;84.20;;;;;;5072157;28;20227;-84
2021/03/13 04:14:00;;;;;;;8.95;2.10;;;8.40;83.90;;;;;;5073619;28;20236;-83
2021/03/13 04:16:31;;;;;;;5.47;2.08;;;8.50;84.20;;;;;;5072877;28;20183;-83
2021/03/13 04:18:58;;;;;;;6.65;2.13;;;8.60;83.70;;;;;;5072782;28;20179;-83
2021/03/13 04:21:26;;;;;;;9.07;2.17;;;8.70;83.80;;;;;;5072247;28;20240;-83
2021/03/13 04:23:52;;;;;;;3.63;2.13;;;8.70;83.50;;;;;;5052329;28;20185;-83
2021/03/13 04:26:18;;;;;;;2.75;1.30;;;8.70;83.60;;;;;;5052469;28;20184;-84
2021/03/13 04:28:45;;;;;;;6.82;1.35;;;8.60;83.50;;;;;;5052454;28;20640;-84
2021/03/13 04:31:13;;;;;;;5.40;1.70;;;8.80;83.70;;;;;;5051870;28;20644;-84
2021/03/13 04:33:40;;;;;;;6.50;1.67;;;8.80;83.50;;;;;;5052701;28;20269;-84
2021/03/13 04:36:08;;;;;;;3.40;1.50;;;8.70;83.70;;;;;;5052621;28;20177;-84
2021/03/13 04:38:36;;;;;;;4.30;1.58;;;8.70;83.70;;;;;;5052620;28;20324;-83
2021/03/13 04:41:02;;;;;;;6.07;1.58;;;8.90;83.70;;;;;;5051991;28;20188;-84
2021/03/13 04:43:28;;;;;;;3.53;1.92;;;8.90;83.60;;;;;;5054392;28;20247;-84
2021/03/13 04:46:01;;;;;;;5.40;1.40;;;8.80;83.30;;;;;;5072959;28;20623;-84
2021/03/13 04:48:30;;;;;;;5.03;1.73;;;8.90;83.60;;;;;;5073099;28;20411;-84
2021/03/13 04:50:59;;;;;;;6.18;1.80;;;9.00;83.60;;;;;;5072916;28;20294;-84
2021/03/13 04:53:25;;;;;;;6.65;2.17;;;8.90;84.00;;;;;;5078245;28;20208;-84
2021/03/13 04:55:50;;;;;;;6.00;1.75;;;8.90;84.20;;;;;;5078530;28;20199;-84
2021/03/13 04:58:16;;;;;;;8.47;2.17;;;8.90;84.50;;;;;;5078146;28;20235;-83
2021/03/13 05:00:42;;;;;;;7.50;1.47;;;9.00;84.60;;;;;;5078356;28;20230;-84
2021/03/13 05:03:08;;;;;;;3.17;1.52;;;9.00;84.70;;;;;;5079255;28;20452;-83
2021/03/13 05:05:33;;;;;;;9.53;2.07;;;9.00;85.00;;;;;;5079994;28;20183;-84
2021/03/13 05:08:02;;;;;;;8.30;1.83;;;9.10;85.30;;;;;;5078120;28;20631;-84
2021/03/13 05:10:28;;;;;;;18.08;3.00;;;9.00;85.20;;;;;;5077661;28;20172;-85
2021/03/13 05:12:54;;;;;;;6.97;1.77;;;9.00;85.40;;;;;;5078033;28;20197;-83
2021/03/13 05:15:20;;;;;;;5.93;2.07;;;8.90;85.60;;;;;;5077950;28;20207;-83
2021/03/13 05:17:46;;;;;;;18.77;2.40;;;8.90;85.80;;;;;;5076618;28;20172;-84
2021/03/13 05:20:13;;;;;;;3.65;1.60;;;8.90;85.90;;;;;;5076980;28;20414;-84
2021/03/13 05:22:39;;;;;;;5.40;1.95;;;8.80;86.10;;;;;;5075138;28;20210;-83
2021/03/13 05:25:06;;;;;;;6.47;2.05;;;8.80;86.50;;;;;;5075428;28;20180;-83
2021/03/13 05:27:32;;;;;;;6.45;1.95;;;8.70;86.50;;;;;;5075226;28;20238;-83
2021/03/13 05:29:58;;;;;;;2.80;1.20;;;8.60;86.00;;;;;;5075191;28;20181;-83
2021/03/13 05:32:26;;;;;;;4.68;1.30;;;8.60;86.00;;;;;;5075149;28;20430;-84
2021/03/13 05:34:54;;;;;;;1.85;1.27;;;8.60;86.00;;;;;;5076793;28;20200;-84
2021/03/13 05:37:19;;;;;;;5.38;1.15;;;8.60;85.60;;;;;;5075262;28;20678;-84
2021/03/13 05:39:45;;;;;;;2.40;1.30;;;8.50;85.10;;;;;;5076535;28;20263;-85
2021/03/13 05:42:11;;;;;;;4.77;1.67;;;8.60;84.50;;;;;;5074622;28;20242;-85
2021/03/13 05:44:38;;;;;;;2.43;1.53;;;8.40;83.90;;;;;;5075153;28;20188;-85
2021/03/13 05:47:04;;;;;;;3.53;0.95;;;8.50;83.80;;;;;;5076607;28;20442;-85
2021/03/13 05:49:33;;;;;;;2.97;0.88;;;8.50;82.80;;;;;;5075334;28;20229;-85
2021/03/13 05:52:03;;;;;;;3.40;1.17;;;8.40;81.50;;;;;;5074759;28;20683;-85
2021/03/13 05:54:29;;;;;;;1.02;0.80;;;8.30;80.90;;;;;;5074983;28;20215;-85
2021/03/13 05:56:58;;;;;;;1.17;0.82;;;8.30;79.10;;;;;;5075104;28;20670;-85
2021/03/13 05:59:24;;;;;;;1.73;0.95;;;8.20;78.00;;;;;;5076139;28;20175;-85
2021/03/13 06:01:51;;;;;;;1.10;0.90;;;8.20;78.00;;;;;;5074547;28;20196;-85
2021/03/13 06:04:17;;;;;;;3.90;1.02;;;8.20;77.80;;;;;;5074004;28;20187;-85
2021/03/13 06:06:44;;;;;;;3.93;0.90;;;8.30;77.80;;;;;;5074997;28;20176;-83
2021/03/13 06:09:12;;;;;;;1.05;0.90;;;8.30;77.50;;;;;;5076049;28;20172;-84
2021/03/13 06:11:38;;;;;;;2.17;0.80;;;8.10;77.00;;;;;;5074467;28;20200;-84
2021/03/13 06:14:04;;;;;;;1.42;1.33;;;8.10;77.30;;;;;;5074763;28;20205;-84
2021/03/13 06:16:33;;;;;;;4.93;1.10;;;8.10;77.00;;;;;;5074904;28;20172;-84
2021/03/13 06:18:59;;;;;;;3.17;0.80;;;8.00;76.70;;;;;;5074828;28;20454;-83
2021/03/13 06:21:34;;;;;;;1.13;1.00;;;8.00;76.60;;;;;;5074282;28;20219;-84
2021/03/13 06:24:02;;;;;;;5.18;1.20;;;8.10;76.70;;;;;;5075786;28;20413;-84
2021/03/13 06:26:49;;;;;;;6.75;1.35;;;8.00;76.20;;;;;;5074412;28;20180;-84
2021/03/13 06:29:15;;;;;;;1.90;0.90;;;7.90;75.80;;;;;;5075743;28;20623;-84
2021/03/13 06:31:41;;;;;;;6.15;1.10;;;8.00;76.00;;;;;;5073761;28;20208;-84
2021/03/13 06:34:07;;;;;;;5.70;1.42;;;7.90;75.80;;;;;;5074617;28;20679;-84
2021/03/13 06:36:32;;;;;;;1.73;0.95;;;7.90;76.10;;;;;;5074515;28;20173;-84
2021/03/13 06:38:58;;;;;;;4.60;1.10;;;7.90;75.90;;;;;;5073861;28;20176;-83
2021/03/13 06:41:24;;;;;;;10.00;1.60;;;7.80;75.30;;;;;;5073648;28;20695;-84
2021/03/13 06:43:53;;;;;;;2.03;1.30;;;7.90;75.50;;;;;;5074369;28;20253;-84
2021/03/13 06:46:29;;;;;;;3.05;1.30;;;8.00;75.50;;;;;;5074241;28;20679;-84
2021/03/13 06:48:57;;;;;;;9.05;1.55;;;7.90;75.30;;;;;;5075197;28;20185;-84
2021/03/13 06:51:37;;;;;;;4.75;1.52;;;7.90;75.50;;;;;;5072688;28;20258;-84
2021/03/13 06:54:15;;;;;;;7.53;1.30;;;7.80;75.60;;;;;;5076277;28;20697;-83
2021/03/13 06:56:56;;;;;;;2.67;1.20;;;7.80;75.80;;;;;;5075690;28;20184;-83
2021/03/13 06:59:31;;;;;;;6.55;1.55;;;8.00;75.60;;;;;;5074470;28;20232;-82
2021/03/13 07:01:58;;;;;;;3.55;1.25;;;7.90;75.10;;;;;;5074565;28;20283;-83
2021/03/13 07:04:29;;;;;;;6.10;1.50;;;7.90;74.80;;;;;;5074945;28;20183;-83
2021/03/13 07:06:55;;;;;;;6.20;1.55;;;8.00;74.60;;;;;;5075085;28;20251;-81
2021/03/13 07:09:48;;;;;;;4.22;1.33;;;7.90;74.40;;;;;;5073868;28;20204;-82
2021/03/13 07:12:42;;;;;;;4.97;1.50;;;8.10;74.50;;;;;;5073243;28;20196;-82
2021/03/13 07:15:25;;;;;;;6.97;1.85;;;8.10;74.30;;;;;;5073548;28;20711;-82
2021/03/13 07:17:53;;;;;;;4.88;1.77;;;8.30;74.00;;;;;;5075217;28;20161;-82
2021/03/13 07:20:24;;;;;;;8.18;1.50;;;8.20;73.50;;;;;;5074296;28;20204;-81
2021/03/13 07:22:57;;;;;;;13.90;1.70;;;8.30;73.70;;;;;;5073487;28;20675;-81
2021/03/13 07:25:25;;;;;;;4.57;2.40;;;8.40;73.70;;;;;;5073577;28;20180;-83
2021/03/13 07:27:54;;;;;;;8.00;1.90;;;8.40;73.40;;;;;;5073835;28;20184;-81
2021/03/13 07:30:21;;;;;;;6.78;2.20;;;8.60;73.30;;;;;;5073395;28;20177;-82
2021/03/13 07:33:10;;;;;;;6.97;1.63;;;8.80;73.30;;;;;;5073352;28;20208;-81
2021/03/13 07:35:40;;;;;;;12.02;1.95;;;9.00;74.30;;;;;;5064219;28;20192;-82
2021/03/13 07:38:10;;;;;;;10.77;2.00;;;9.50;76.90;;;;;;5072904;28;20184;-83
2021/03/13 07:40:42;;;;;;;10.27;1.63;;;9.90;75.10;;;;;;5072426;28;20237;-82
2021/03/13 07:43:13;;;;;;;2.83;1.58;;;10.00;73.10;;;;;;5073942;28;20220;-80
2021/03/13 07:45:39;;;;;;;9.57;2.00;;;10.20;71.70;;;;;;5054799;28;20222;-82
2021/03/13 07:48:08;;;;;;;13.48;1.65;;;10.10;71.00;;;;;;5052845;28;20184;-82
2021/03/13 07:50:34;;;;;;;14.75;1.80;;;10.30;70.90;;;;;;5054806;28;20197;-82
2021/03/13 07:53:00;;;;;;;14.33;2.67;;;10.30;68.20;;;;;;5052987;28;20204;-81
2021/03/13 07:55:27;;;;;;;6.28;2.30;;;10.10;66.70;;;;;;5052891;28;20714;-82
2021/03/13 07:57:53;;;;;;;8.38;2.00;;;10.00;66.80;;;;;;5054111;28;20185;-81
2021/03/13 08:00:39;;;;;;;4.75;1.55;;;9.90;67.30;;;;;;5071837;28;20179;-82
2021/03/13 08:03:49;;;;;;;6.45;1.75;;;9.80;67.60;;;;;;5073307;28;20196;-82
2021/03/13 08:06:16;;;;;;;11.75;2.33;;;9.70;67.40;;;;;;5074530;28;20173;-82
2021/03/13 08:08:46;;;;;;;9.25;2.63;;;9.60;67.80;;;;;;5072899;28;20245;-81
2021/03/13 08:11:14;;;;;;;11.98;2.17;;;9.50;67.90;;;;;;5072726;28;20200;-81
2021/03/13 08:13:40;;;;;;;10.75;2.47;;;9.30;68.20;;;;;;5074077;28;20679;-81
2021/03/13 08:16:13;;;;;;;8.40;1.83;;;9.40;68.60;;;;;;5073038;28;20184;-81
2021/03/13 08:18:46;;;;;;;14.93;1.80;;;9.30;68.80;;;;;;5073090;28;20208;-81
2021/03/13 08:21:18;;;;;;;5.28;1.83;;;9.40;68.90;;;;;;5072089;28;20196;-82
2021/03/13 08:23:52;;;;;;;6.50;2.05;;;9.50;68.80;;;;;;5072342;28;20172;-81
2021/03/13 08:26:22;;;;;;;11.30;2.05;;;9.60;68.70;;;;;;5072656;28;20631;-81
2021/03/13 08:28:48;;;;;;;6.78;2.20;;;9.60;68.80;;;;;;5076285;28;20176;-81
2021/03/13 08:31:28;;;;;;;10.90;2.80;;;9.70;68.70;;;;;;5077404;28;20682;-82
2021/03/13 08:33:58;;;;;;;18.08;2.88;;;9.80;68.40;;;;;;5076461;28;20264;-82
2021/03/13 08:36:26;;;;;;;18.15;2.50;;;9.80;67.60;;;;;;5078083;28;20222;-81
2021/03/13 08:39:03;;;;;;;15.05;2.92;;;9.90;68.00;;;;;;5076281;28;20173;-81
2021/03/13 08:41:41;;;;;;;13.07;3.08;;;10.10;67.50;;;;;;5076765;28;20701;-81
2021/03/13 08:44:10;;;;;;;7.82;2.17;;;10.00;66.60;;;;;;5068947;28;20268;-81
2021/03/13 08:46:55;;;;;;;10.88;2.30;;;9.90;66.40;;;;;;5056073;28;20215;-81
2021/03/13 08:49:24;;;;;;;10.82;3.20;;;10.10;66.60;;;;;;5057550;28;20248;-81
2021/03/13 08:52:09;;;;;;;10.77;3.70;;;10.30;66.80;;;;;;5055376;28;20664;-82
2021/03/13 08:54:41;;;;;;;15.18;4.55;;;10.10;65.40;;;;;;5057154;28;20197;-81
2021/03/13 08:57:10;;;;;;;16.45;3.70;;;10.30;66.00;;;;;;5056024;28;20177;-81
2021/03/13 08:59:38;;;;;;;13.80;2.72;;;10.40;64.10;;;;;;5067447;28;20207;-81
2021/03/13 09:02:08;;;;;;;13.95;4.00;;;10.20;62.60;;;;;;5075263;28;20678;-81
2021/03/13 09:04:39;;;;;;;15.45;4.60;;;10.30;62.80;;;;;;5075814;28;20666;-82
2021/03/13 09:07:06;;;;;;;14.23;3.15;;;10.10;62.30;;;;;;5077211;28;20157;-82
2021/03/13 09:09:34;;;;;;;16.25;4.15;;;10.00;62.50;;;;;;5075904;28;20267;-81
2021/03/13 09:12:07;;;;;;;9.57;2.60;;;10.10;63.00;;;;;;5074994;28;20204;-82
2021/03/13 09:14:37;;;;;;;16.35;3.22;;;10.30;62.60;;;;;;5075096;28;20587;-81
2021/03/13 09:17:13;;;;;;;14.98;3.80;;;10.40;61.90;;;;;;5075393;28;20258;-81
2021/03/13 09:19:40;;;;;;;21.33;3.58;;;10.30;61.80;;;;;;5076750;28;20176;-81
2021/03/13 09:22:19;;;;;;;34.75;5.50;;;10.30;61.50;;;;;;5075588;28;20223;-83
2021/03/13 09:24:59;;;;;;;17.92;3.83;;;10.30;61.60;;;;;;5075758;28;20178;-82
2021/03/13 09:27:29;;;;;;;16.48;3.75;;;10.50;61.10;;;;;;5075647;28;20640;-82
2021/03/13 09:29:57;;;;;;;22.48;3.70;;;10.50;60.50;;;;;;5075300;28;20181;-82
2021/03/13 09:32:24;;;;;;;15.30;3.85;;;10.80;60.80;;;;;;5075085;28;20256;-82
2021/03/13 09:34:53;;;;;;;13.00;3.10;;;10.90;60.10;;;;;;5075954;28;20531;-82
2021/03/13 09:37:21;;;;;;;11.68;3.47;;;10.90;60.50;;;;;;5074437;28;20257;-82
2021/03/13 09:40:10;;;;;;;9.43;3.35;;;10.90;60.80;;;;;;5074759;28;20593;-83
2021/03/13 09:42:37;;;;;;;11.13;3.05;;;10.80;60.80;;;;;;5075269;28;20216;-82
2021/03/13 09:45:06;;;;;;;12.77;4.38;;;10.90;61.50;;;;;;5060162;28;20187;-83
2021/03/13 09:47:49;;;;;;;14.07;3.80;;;11.10;61.50;;;;;;5055322;28;20181;-83
2021/03/13 09:50:30;;;;;;;24.80;4.72;;;11.20;61.20;;;;;;5066916;28;20552;-82
2021/03/13 09:52:56;;;;;;;17.13;3.67;;;11.30;60.90;;;;;;5074968;28;20192;-83
2021/03/13 09:55:24;;;;;;;22.03;3.50;;;11.50;59.90;;;;;;5076348;28;20287;-82
2021/03/13 09:57:55;;;;;;;19.80;3.75;;;11.40;59.10;;;;;;5076338;28;20430;-83
2021/03/13 10:00:24;;;;;;;15.80;3.92;;;11.30;59.10;;;;;;5075021;28;20176;-83
2021/03/13 10:02:51;;;;;;;13.02;3.00;;;11.40;58.70;;;;;;5074707;28;20192;-83
2021/03/13 10:05:19;;;;;;;26.45;6.25;;;11.60;58.60;;;;;;5074759;28;20196;-82
2021/03/13 10:07:47;;;;;;;17.25;4.45;;;11.50;57.50;;;;;;5074767;28;20164;-82
2021/03/13 10:10:18;;;;;;;24.20;3.88;;;11.60;58.00;;;;;;5074896;28;20258;-83
2021/03/13 10:12:52;;;;;;;11.63;3.70;;;11.60;56.40;;;;;;5074175;28;20196;-80
2021/03/13 10:15:26;;;;;;;17.60;3.58;;;11.50;56.20;;;;;;5075708;28;20204;-80
2021/03/13 10:17:55;;;;;;;17.58;3.65;;;11.30;56.20;;;;;;5073961;28;20527;-81
2021/03/13 10:20:23;;;;;;;14.77;5.45;;;11.20;56.80;;;;;;5074206;28;20326;-81
2021/03/13 10:22:49;;;;;;;10.10;2.85;;;11.50;58.70;;;;;;5073520;28;20227;-80
2021/03/13 10:25:15;;;;;;;10.97;3.60;;;11.50;58.00;;;;;;5073860;28;20254;-81
2021/03/13 10:27:41;;;;;;;25.88;4.38;;;11.70;58.30;;;;;;5074971;28;20392;-80
2021/03/13 10:30:08;;;;;;;15.65;4.53;;;11.70;57.20;;;;;;5075452;28;20180;-80
2021/03/13 10:32:36;;;;;;;7.30;2.72;;;11.80;55.90;;;;;;5073361;28;20196;-81
2021/03/13 10:35:33;;;;;;;12.70;3.50;;;11.90;55.70;;;;;;5074118;28;20208;-81
2021/03/13 10:38:09;;;;;;;11.50;2.80;;;11.70;54.50;;;;;;5066121;28;20418;-81
2021/03/13 10:40:54;;;;;;;14.05;2.97;;;11.50;55.50;;;;;;5073155;28;20169;-81
2021/03/13 10:43:32;;;;;;;15.45;2.85;;;11.40;57.80;;;;;;5073508;28;20192;-80
2021/03/13 10:45:57;;;;;;;17.02;4.22;;;11.40;58.40;;;;;;5074821;28;20176;-81
2021/03/13 10:48:29;;;;;;;8.20;2.20;;;11.10;58.10;;;;;;5073499;28;20563;-80
2021/03/13 10:50:55;;;;;;;11.68;3.05;;;11.00;58.30;;;;;;5072306;28;20172;-81
2021/03/13 10:53:28;;;;;;;8.10;2.15;;;11.10;57.90;;;;;;5074360;28;20545;-80
2021/03/13 10:55:55;;;;;;;10.35;2.72;;;11.20;57.90;;;;;;5074432;28;20192;-80
2021/03/13 10:58:29;;;;;;;13.93;2.53;;;11.30;58.70;;;;;;5075235;28;20260;-80
2021/03/13 11:00:55;;;;;;;6.80;2.65;;;11.30;57.10;;;;;;5073375;28;20180;-79
2021/03/13 11:03:21;;;;;;;9.00;3.30;;;11.10;57.50;;;;;;5074525;28;20222;-78
2021/03/13 11:05:51;;;;;;;24.70;3.40;;;11.10;57.90;;;;;;5073920;28;20195;-81
2021/03/13 11:08:17;;;;;;;7.85;2.10;;;10.90;58.80;;;;;;5075402;28;20710;-80
2021/03/13 11:10:43;;;;;;;13.70;2.80;;;10.70;60.10;;;;;;5074548;28;20183;-80
2021/03/13 11:13:09;;;;;;;5.53;2.40;;;10.70;60.80;;;;;;5073726;28;20283;-80
2021/03/13 11:15:35;;;;;;;15.50;3.47;;;10.80;61.30;;;;;;5073367;28;20442;-80
2021/03/13 11:18:01;;;;;;;8.50;2.30;;;11.00;61.40;;;;;;5072996;28;20260;-79
2021/03/13 11:20:28;;;;;;;16.10;2.80;;;11.00;60.40;;;;;;5074453;28;20425;-83
2021/03/13 11:22:53;;;;;;;13.98;2.42;;;10.90;60.30;;;;;;5072428;28;20945;-80
2021/03/13 11:25:19;;;;;;;9.87;2.60;;;10.60;60.90;;;;;;5072878;28;20195;-81
2021/03/13 11:27:45;;;;;;;15.20;2.97;;;10.50;61.60;;;;;;5072671;28;20180;-81
2021/03/13 11:30:11;;;;;;;8.67;2.87;;;10.50;62.00;;;;;;5074163;28;20180;-81
2021/03/13 11:32:37;;;;;;;16.13;4.13;;;10.50;62.00;;;;;;5072118;28;20200;-82
2021/03/13 11:35:07;;;;;;;8.70;2.53;;;10.70;61.50;;;;;;5072604;28;20253;-81
2021/03/13 11:37:34;;;;;;;9.35;2.83;;;10.70;61.00;;;;;;5072803;28;20259;-82
2021/03/13 11:40:00;;;;;;;13.60;3.25;;;10.90;60.90;;;;;;5072466;28;20176;-80
2021/03/13 11:42:29;;;;;;;15.00;3.13;;;10.80;61.10;;;;;;5073033;28;20208;-81
2021/03/13 11:44:56;;;;;;;13.18;2.83;;;10.50;61.50;;;;;;5070373;28;20202;-81
2021/03/13 11:47:26;;;;;;;19.17;2.72;;;10.50;61.90;;;;;;5053916;28;20540;-81
2021/03/13 11:49:53;;;;;;;10.48;2.30;;;10.20;62.40;;;;;;5052356;28;20528;-81
2021/03/13 11:52:20;;;;;;;7.72;2.20;;;10.10;63.40;;;;;;5053068;28;20197;-81
2021/03/13 11:54:46;;;;;;;9.48;2.47;;;10.00;63.90;;;;;;5053181;28;20292;-81
2021/03/13 11:57:12;;;;;;;12.70;3.45;;;10.00;64.30;;;;;;5052432;28;20268;-81
2021/03/13 11:59:38;;;;;;;17.52;3.28;;;10.40;64.20;;;;;;5063635;28;20172;-81
2021/03/13 12:02:04;;;;;;;4.75;2.25;;;10.70;63.00;;;;;;5070695;28;20566;-81
2021/03/13 12:04:30;;;;;;;12.10;2.37;;;10.80;60.70;;;;;;5072169;28;20183;-80
2021/03/13 12:06:55;;;;;;;6.93;2.10;;;10.90;59.10;;;;;;5072088;28;20226;-80
2021/03/13 12:09:21;;;;;;;18.37;2.23;;;11.00;57.80;;;;;;5072238;28;20180;-81
2021/03/13 12:11:47;;;;;;;6.67;1.90;;;11.00;55.90;;;;;;5071711;28;20196;-81
2021/03/13 12:14:13;;;;;;;9.57;3.23;;;11.10;55.50;;;;;;5072069;28;20806;-80
2021/03/13 12:16:38;;;;;;;6.40;2.50;;;11.10;54.70;;;;;;5072269;28;20176;-80
2021/03/13 12:19:04;;;;;;;5.93;1.90;;;11.20;54.70;;;;;;5071920;28;20652;-80
2021/03/13 12:21:30;;;;;;;8.30;1.83;;;11.30;54.60;;;;;;5071839;28;20188;-81
2021/03/13 12:23:55;;;;;;;8.10;2.60;;;11.00;56.60;;;;;;5071988;28;20263;-81
2021/03/13 12:26:21;;;;;;;12.03;3.13;;;11.00;58.90;;;;;;5072814;28;20275;-81
2021/03/13 12:28:50;;;;;;;13.43;2.20;;;10.70;60.90;;;;;;5073651;28;20228;-81
2021/03/13 12:31:16;;;;;;;8.68;2.60;;;10.40;63.10;;;;;;5072880;28;20831;-81
2021/03/13 12:33:42;;;;;;;11.93;2.83;;;10.30;64.10;;;;;;5071905;28;20202;-82
2021/03/13 12:36:08;;;;;;;9.90;2.20;;;10.20;63.80;;;;;;5073179;28;20172;-81
2021/03/13 12:38:36;;;;;;;10.57;2.00;;;10.00;63.80;;;;;;5072258;28;20268;-81
2021/03/13 12:41:03;;;;;;;7.88;1.85;;;9.60;63.40;;;;;;5071421;28;20177;-81
2021/03/13 12:43:29;;;;;;;6.13;1.80;;;9.80;64.40;;;;;;5071614;28;20188;-81
2021/03/13 12:45:55;;;;;;;9.57;2.43;;;9.90;64.90;;;;;;5071744;28;20708;-81
2021/03/13 12:48:20;;;;;;;19.33;2.30;;;10.10;64.80;;;;;;5071734;28;20177;-80
2021/03/13 12:50:46;;;;;;;12.43;2.67;;;10.20;64.10;;;;;;5071417;28;20544;-81
2021/03/13 12:53:12;;;;;;;12.07;2.70;;;10.30;64.00;;;;;;5073109;28;20514;-81
2021/03/13 12:55:38;;;;;;;9.87;2.40;;;10.50;63.80;;;;;;5073059;28;20188;-81
2021/03/13 12:58:04;;;;;;;16.00;3.30;;;10.70;63.40;;;;;;5072276;28;20267;-81
2021/03/13 13:00:30;;;;;;;11.15;2.47;;;10.80;63.10;;;;;;5072856;28;20251;-81